sensor_id;sensor_type;location;lat;lon;timestamp;P1;durP1;ratioP1;P2;durP2;ratioP2
57605;SDS011;43430;48.204;11.556;2023-04-24T00:00:33;1.70;;;0.50;;
57605;SDS011;43430;48.204;11.556;2023-04-24T00:02:58;1.77;;;0.40;;
57605;SDS011;43430;48.204;11.556;2023-04-24T00:05:24;1.73;;;0.30;;
57605;SDS011;43430;48.204;11.556;2023-04-24T00:07:50;2.45;;;0.38;;
57605;SDS011;43430;48.204;11.556;2023-04-24T00:10:18;3.35;;;0.60;;
57605;SDS011;43430;48.204;11.556;2023-04-24T00:12:44;3.67;;;0.68;;
57605;SDS011;43430;48.204;11.556;2023-04-24T00:15:09;1.80;;;0.47;;
57605;SDS011;43430;48.204;11.556;2023-04-24T00:17:35;1.60;;;0.30;;
57605;SDS011;43430;48.204;11.556;2023-04-24T00:20:01;1.88;;;0.60;;
57605;SDS011;43430;48.204;11.556;2023-04-24T00:22:29;1.10;;;0.28;;
57605;SDS011;43430;48.204;11.556;2023-04-24T00:24:55;2.40;;;0.50;;
57605;SDS011;43430;48.204;11.556;2023-04-24T00:27:21;1.17;;;0.30;;
57605;SDS011;43430;48.204;11.556;2023-04-24T00:29:47;1.90;;;0.50;;
57605;SDS011;43430;48.204;11.556;2023-04-24T00:32:12;1.42;;;0.20;;
57605;SDS011;43430;48.204;11.556;2023-04-24T00:34:38;1.50;;;0.45;;
57605;SDS011;43430;48.204;11.556;2023-04-24T00:37:04;0.98;;;0.30;;
57605;SDS011;43430;48.204;11.556;2023-04-24T00:39:30;1.80;;;0.32;;
57605;SDS011;43430;48.204;11.556;2023-04-24T00:41:55;1.60;;;0.40;;
57605;SDS011;43430;48.204;11.556;2023-04-24T00:44:21;2.08;;;0.30;;
57605;SDS011;43430;48.204;11.556;2023-04-24T00:46:47;1.90;;;0.20;;
57605;SDS011;43430;48.204;11.556;2023-04-24T00:49:17;1.20;;;0.20;;
57605;SDS011;43430;48.204;11.556;2023-04-24T00:51:43;0.80;;;0.20;;
57605;SDS011;43430;48.204;11.556;2023-04-24T00:54:10;2.75;;;0.30;;
57605;SDS011;43430;48.204;11.556;2023-04-24T00:56:36;1.35;;;0.20;;
57605;SDS011;43430;48.204;11.556;2023-04-24T00:59:01;0.65;;;0.20;;
57605;SDS011;43430;48.204;11.556;2023-04-24T01:01:27;2.25;;;0.32;;
57605;SDS011;43430;48.204;11.556;2023-04-24T01:03:52;1.58;;;0.22;;
57605;SDS011;43430;48.204;11.556;2023-04-24T01:06:18;1.25;;;0.10;;
57605;SDS011;43430;48.204;11.556;2023-04-24T01:08:45;1.60;;;0.20;;
57605;SDS011;43430;48.204;11.556;2023-04-24T01:11:11;1.42;;;0.20;;
57605;SDS011;43430;48.204;11.556;2023-04-24T01:13:37;1.23;;;0.20;;
57605;SDS011;43430;48.204;11.556;2023-04-24T01:16:02;1.38;;;0.10;;
57605;SDS011;43430;48.204;11.556;2023-04-24T01:18:28;0.85;;;0.10;;
57605;SDS011;43430;48.204;11.556;2023-04-24T01:20:53;1.80;;;0.20;;
57605;SDS011;43430;48.204;11.556;2023-04-24T01:23:23;1.08;;;0.20;;
57605;SDS011;43430;48.204;11.556;2023-04-24T01:25:48;1.38;;;0.10;;
57605;SDS011;43430;48.204;11.556;2023-04-24T01:28:15;0.30;;;0.10;;
57605;SDS011;43430;48.204;11.556;2023-04-24T01:30:41;0.70;;;0.20;;
57605;SDS011;43430;48.204;11.556;2023-04-24T01:33:06;0.50;;;0.10;;
57605;SDS011;43430;48.204;11.556;2023-04-24T01:35:32;1.08;;;0.10;;
57605;SDS011;43430;48.204;11.556;2023-04-24T01:37:58;1.95;;;0.43;;
57605;SDS011;43430;48.204;11.556;2023-04-24T01:40:23;0.85;;;0.10;;
57605;SDS011;43430;48.204;11.556;2023-04-24T01:42:49;1.83;;;0.10;;
57605;SDS011;43430;48.204;11.556;2023-04-24T01:45:15;1.00;;;0.10;;
57605;SDS011;43430;48.204;11.556;2023-04-24T01:47:40;1.05;;;0.10;;
57605;SDS011;43430;48.204;11.556;2023-04-24T01:50:06;1.10;;;0.10;;
57605;SDS011;43430;48.204;11.556;2023-04-24T01:52:32;0.95;;;0.10;;
57605;SDS011;43430;48.204;11.556;2023-04-24T01:55:04;0.20;;;0.10;;
57605;SDS011;43430;48.204;11.556;2023-04-24T01:57:31;0.52;;;0.10;;
57605;SDS011;43430;48.204;11.556;2023-04-24T01:59:56;0.50;;;0.20;;
57605;SDS011;43430;48.204;11.556;2023-04-24T02:02:22;1.08;;;0.10;;
57605;SDS011;43430;48.204;11.556;2023-04-24T02:04:49;0.90;;;0.10;;
57605;SDS011;43430;48.204;11.556;2023-04-24T02:07:15;1.50;;;0.20;;
57605;SDS011;43430;48.204;11.556;2023-04-24T02:09:40;0.43;;;0.10;;
57605;SDS011;43430;48.204;11.556;2023-04-24T02:12:05;1.08;;;0.10;;
57605;SDS011;43430;48.204;11.556;2023-04-24T02:14:31;0.30;;;0.10;;
57605;SDS011;43430;48.204;11.556;2023-04-24T02:16:56;0.30;;;0.10;;
57605;SDS011;43430;48.204;11.556;2023-04-24T02:19:21;0.57;;;0.10;;
57605;SDS011;43430;48.204;11.556;2023-04-24T02:21:47;0.65;;;0.10;;
57605;SDS011;43430;48.204;11.556;2023-04-24T02:24:12;0.82;;;0.10;;
57605;SDS011;43430;48.204;11.556;2023-04-24T02:26:37;0.50;;;0.10;;
57605;SDS011;43430;48.204;11.556;2023-04-24T02:29:03;0.90;;;0.17;;
57605;SDS011;43430;48.204;11.556;2023-04-24T02:31:28;1.67;;;0.10;;
57605;SDS011;43430;48.204;11.556;2023-04-24T02:33:53;2.25;;;0.10;;
57605;SDS011;43430;48.204;11.556;2023-04-24T02:36:19;1.27;;;0.20;;
57605;SDS011;43430;48.204;11.556;2023-04-24T02:38:44;0.93;;;0.10;;
57605;SDS011;43430;48.204;11.556;2023-04-24T02:41:10;0.88;;;0.10;;
57605;SDS011;43430;48.204;11.556;2023-04-24T02:43:35;0.77;;;0.13;;
57605;SDS011;43430;48.204;11.556;2023-04-24T02:46:01;1.58;;;0.10;;
57605;SDS011;43430;48.204;11.556;2023-04-24T02:48:28;1.17;;;0.20;;
57605;SDS011;43430;48.204;11.556;2023-04-24T02:50:53;0.65;;;0.10;;
57605;SDS011;43430;48.204;11.556;2023-04-24T02:53:19;1.38;;;0.10;;
57605;SDS011;43430;48.204;11.556;2023-04-24T02:55:45;1.25;;;0.10;;
57605;SDS011;43430;48.204;11.556;2023-04-24T02:58:11;1.17;;;0.20;;
57605;SDS011;43430;48.204;11.556;2023-04-24T03:00:37;0.80;;;0.10;;
57605;SDS011;43430;48.204;11.556;2023-04-24T03:03:03;1.58;;;0.10;;
57605;SDS011;43430;48.204;11.556;2023-04-24T03:05:28;0.63;;;0.10;;
57605;SDS011;43430;48.204;11.556;2023-04-24T03:07:55;0.70;;;0.10;;
57605;SDS011;43430;48.204;11.556;2023-04-24T03:10:21;1.25;;;0.10;;
57605;SDS011;43430;48.204;11.556;2023-04-24T03:12:47;0.77;;;0.10;;
57605;SDS011;43430;48.204;11.556;2023-04-24T03:15:13;1.48;;;0.10;;
57605;SDS011;43430;48.204;11.556;2023-04-24T03:17:38;1.00;;;0.20;;
57605;SDS011;43430;48.204;11.556;2023-04-24T03:20:04;0.60;;;0.10;;
57605;SDS011;43430;48.204;11.556;2023-04-24T03:22:30;0.90;;;0.10;;
57605;SDS011;43430;48.204;11.556;2023-04-24T03:24:57;0.77;;;0.10;;
57605;SDS011;43430;48.204;11.556;2023-04-24T03:27:23;0.95;;;0.10;;
57605;SDS011;43430;48.204;11.556;2023-04-24T03:29:48;0.75;;;0.13;;
57605;SDS011;43430;48.204;11.556;2023-04-24T03:32:18;0.82;;;0.20;;
57605;SDS011;43430;48.204;11.556;2023-04-24T03:34:44;1.25;;;0.40;;
57605;SDS011;43430;48.204;11.556;2023-04-24T03:37:09;1.35;;;0.10;;
57605;SDS011;43430;48.204;11.556;2023-04-24T03:39:35;0.80;;;0.10;;
57605;SDS011;43430;48.204;11.556;2023-04-24T03:42:00;1.42;;;0.15;;
57605;SDS011;43430;48.204;11.556;2023-04-24T03:44:26;0.93;;;0.10;;
57605;SDS011;43430;48.204;11.556;2023-04-24T03:46:51;0.82;;;0.10;;
57605;SDS011;43430;48.204;11.556;2023-04-24T03:49:17;1.15;;;0.20;;
57605;SDS011;43430;48.204;11.556;2023-04-24T03:51:42;0.82;;;0.10;;
57605;SDS011;43430;48.204;11.556;2023-04-24T03:54:08;0.95;;;0.17;;
57605;SDS011;43430;48.204;11.556;2023-04-24T03:56:33;1.02;;;0.20;;
57605;SDS011;43430;48.204;11.556;2023-04-24T03:58:58;1.65;;;0.30;;
57605;SDS011;43430;48.204;11.556;2023-04-24T04:01:24;0.63;;;0.10;;
57605;SDS011;43430;48.204;11.556;2023-04-24T04:03:49;1.38;;;0.22;;
57605;SDS011;43430;48.204;11.556;2023-04-24T04:06:14;1.88;;;0.20;;
57605;SDS011;43430;48.204;11.556;2023-04-24T04:08:40;3.30;;;0.20;;
57605;SDS011;43430;48.204;11.556;2023-04-24T04:11:05;2.20;;;0.25;;
57605;SDS011;43430;48.204;11.556;2023-04-24T04:13:31;1.42;;;0.32;;
57605;SDS011;43430;48.204;11.556;2023-04-24T04:15:56;1.10;;;0.20;;
57605;SDS011;43430;48.204;11.556;2023-04-24T04:18:21;0.80;;;0.13;;
57605;SDS011;43430;48.204;11.556;2023-04-24T04:20:47;2.00;;;0.20;;
57605;SDS011;43430;48.204;11.556;2023-04-24T04:23:12;2.08;;;0.20;;
57605;SDS011;43430;48.204;11.556;2023-04-24T04:25:37;1.55;;;0.20;;
57605;SDS011;43430;48.204;11.556;2023-04-24T04:28:03;1.00;;;0.10;;
57605;SDS011;43430;48.204;11.556;2023-04-24T04:30:28;0.88;;;0.13;;
57605;SDS011;43430;48.204;11.556;2023-04-24T04:32:57;0.80;;;0.10;;
57605;SDS011;43430;48.204;11.556;2023-04-24T04:35:23;1.08;;;0.20;;
57605;SDS011;43430;48.204;11.556;2023-04-24T04:37:48;3.15;;;0.38;;
57605;SDS011;43430;48.204;11.556;2023-04-24T04:40:14;2.00;;;0.20;;
57605;SDS011;43430;48.204;11.556;2023-04-24T04:42:39;1.92;;;0.43;;
57605;SDS011;43430;48.204;11.556;2023-04-24T04:45:06;1.17;;;0.30;;
57605;SDS011;43430;48.204;11.556;2023-04-24T04:47:36;1.63;;;0.22;;
57605;SDS011;43430;48.204;11.556;2023-04-24T04:50:02;0.52;;;0.10;;
57605;SDS011;43430;48.204;11.556;2023-04-24T04:52:29;1.20;;;0.30;;
57605;SDS011;43430;48.204;11.556;2023-04-24T04:54:54;0.98;;;0.20;;
57605;SDS011;43430;48.204;11.556;2023-04-24T04:57:20;1.23;;;0.20;;
57605;SDS011;43430;48.204;11.556;2023-04-24T04:59:46;0.80;;;0.20;;
57605;SDS011;43430;48.204;11.556;2023-04-24T05:02:11;1.42;;;0.10;;
57605;SDS011;43430;48.204;11.556;2023-04-24T05:04:37;1.63;;;0.20;;
57605;SDS011;43430;48.204;11.556;2023-04-24T05:07:02;1.13;;;0.20;;
57605;SDS011;43430;48.204;11.556;2023-04-24T05:09:28;1.60;;;0.17;;
57605;SDS011;43430;48.204;11.556;2023-04-24T05:11:54;1.13;;;0.20;;
57605;SDS011;43430;48.204;11.556;2023-04-24T05:14:20;0.93;;;0.15;;
57605;SDS011;43430;48.204;11.556;2023-04-24T05:16:45;1.40;;;0.20;;
57605;SDS011;43430;48.204;11.556;2023-04-24T05:19:11;2.25;;;0.10;;
57605;SDS011;43430;48.204;11.556;2023-04-24T05:21:38;0.73;;;0.10;;
57605;SDS011;43430;48.204;11.556;2023-04-24T05:24:04;1.02;;;0.10;;
57605;SDS011;43430;48.204;11.556;2023-04-24T05:26:30;1.67;;;0.10;;
57605;SDS011;43430;48.204;11.556;2023-04-24T05:28:55;1.00;;;0.10;;
57605;SDS011;43430;48.204;11.556;2023-04-24T05:31:20;1.15;;;0.10;;
57605;SDS011;43430;48.204;11.556;2023-04-24T05:33:46;0.82;;;0.10;;
57605;SDS011;43430;48.204;11.556;2023-04-24T05:36:11;0.57;;;0.10;;
57605;SDS011;43430;48.204;11.556;2023-04-24T05:38:37;0.38;;;0.10;;
57605;SDS011;43430;48.204;11.556;2023-04-24T05:41:02;0.85;;;0.10;;
57605;SDS011;43430;48.204;11.556;2023-04-24T05:43:27;0.88;;;0.20;;
57605;SDS011;43430;48.204;11.556;2023-04-24T05:45:53;0.75;;;0.20;;
57605;SDS011;43430;48.204;11.556;2023-04-24T05:48:18;4.00;;;0.10;;
57605;SDS011;43430;48.204;11.556;2023-04-24T05:50:44;1.42;;;0.10;;
57605;SDS011;43430;48.204;11.556;2023-04-24T05:53:10;0.65;;;0.10;;
57605;SDS011;43430;48.204;11.556;2023-04-24T05:55:35;0.52;;;0.00;;
57605;SDS011;43430;48.204;11.556;2023-04-24T05:58:01;0.68;;;0.10;;
57605;SDS011;43430;48.204;11.556;2023-04-24T06:00:26;0.73;;;0.10;;
57605;SDS011;43430;48.204;11.556;2023-04-24T06:02:52;0.93;;;0.20;;
57605;SDS011;43430;48.204;11.556;2023-04-24T06:05:18;1.20;;;0.10;;
57605;SDS011;43430;48.204;11.556;2023-04-24T06:07:43;1.50;;;0.10;;
57605;SDS011;43430;48.204;11.556;2023-04-24T06:10:09;1.05;;;0.10;;
57605;SDS011;43430;48.204;11.556;2023-04-24T06:12:35;0.65;;;0.10;;
57605;SDS011;43430;48.204;11.556;2023-04-24T06:15:01;0.57;;;0.10;;
57605;SDS011;43430;48.204;11.556;2023-04-24T06:17:27;0.75;;;0.10;;
57605;SDS011;43430;48.204;11.556;2023-04-24T06:19:52;2.00;;;0.10;;
57605;SDS011;43430;48.204;11.556;2023-04-24T06:22:18;0.50;;;0.10;;
57605;SDS011;43430;48.204;11.556;2023-04-24T06:24:43;0.40;;;0.10;;
57605;SDS011;43430;48.204;11.556;2023-04-24T06:27:08;0.88;;;0.10;;
57605;SDS011;43430;48.204;11.556;2023-04-24T06:29:35;0.93;;;0.10;;
57605;SDS011;43430;48.204;11.556;2023-04-24T06:32:01;1.25;;;0.10;;
57605;SDS011;43430;48.204;11.556;2023-04-24T06:34:26;1.20;;;0.10;;
57605;SDS011;43430;48.204;11.556;2023-04-24T06:36:52;0.17;;;0.00;;
57605;SDS011;43430;48.204;11.556;2023-04-24T06:39:17;1.08;;;0.10;;
57605;SDS011;43430;48.204;11.556;2023-04-24T06:41:42;0.40;;;0.10;;
57605;SDS011;43430;48.204;11.556;2023-04-24T06:44:08;0.30;;;0.10;;
57605;SDS011;43430;48.204;11.556;2023-04-24T06:46:33;0.73;;;0.10;;
57605;SDS011;43430;48.204;11.556;2023-04-24T06:48:59;2.05;;;0.20;;
57605;SDS011;43430;48.204;11.556;2023-04-24T06:51:25;0.70;;;0.10;;
57605;SDS011;43430;48.204;11.556;2023-04-24T06:53:52;1.00;;;0.10;;
57605;SDS011;43430;48.204;11.556;2023-04-24T06:56:18;2.47;;;0.10;;
57605;SDS011;43430;48.204;11.556;2023-04-24T06:58:44;0.25;;;0.10;;
57605;SDS011;43430;48.204;11.556;2023-04-24T07:01:10;0.70;;;0.10;;
57605;SDS011;43430;48.204;11.556;2023-04-24T07:03:36;0.88;;;0.10;;
57605;SDS011;43430;48.204;11.556;2023-04-24T07:06:01;0.50;;;0.10;;
57605;SDS011;43430;48.204;11.556;2023-04-24T07:08:28;1.17;;;0.20;;
57605;SDS011;43430;48.204;11.556;2023-04-24T07:10:55;0.70;;;0.10;;
57605;SDS011;43430;48.204;11.556;2023-04-24T07:13:22;0.60;;;0.10;;
57605;SDS011;43430;48.204;11.556;2023-04-24T07:15:48;1.45;;;0.20;;
57605;SDS011;43430;48.204;11.556;2023-04-24T07:18:20;0.77;;;0.05;;
57605;SDS011;43430;48.204;11.556;2023-04-24T07:20:46;0.70;;;0.10;;
57605;SDS011;43430;48.204;11.556;2023-04-24T07:23:11;0.73;;;0.10;;
57605;SDS011;43430;48.204;11.556;2023-04-24T07:25:36;0.52;;;0.10;;
57605;SDS011;43430;48.204;11.556;2023-04-24T07:28:03;0.85;;;0.10;;
57605;SDS011;43430;48.204;11.556;2023-04-24T07:30:29;2.65;;;0.10;;
57605;SDS011;43430;48.204;11.556;2023-04-24T07:32:55;1.95;;;0.10;;
57605;SDS011;43430;48.204;11.556;2023-04-24T07:35:20;0.40;;;0.10;;
57605;SDS011;43430;48.204;11.556;2023-04-24T07:37:46;0.80;;;0.10;;
57605;SDS011;43430;48.204;11.556;2023-04-24T07:40:14;0.55;;;0.10;;
57605;SDS011;43430;48.204;11.556;2023-04-24T07:42:40;1.00;;;0.10;;
57605;SDS011;43430;48.204;11.556;2023-04-24T07:45:06;0.30;;;0.10;;
57605;SDS011;43430;48.204;11.556;2023-04-24T07:47:32;0.30;;;0.10;;
57605;SDS011;43430;48.204;11.556;2023-04-24T07:49:58;0.93;;;0.10;;
57605;SDS011;43430;48.204;11.556;2023-04-24T07:52:24;1.42;;;0.20;;
57605;SDS011;43430;48.204;11.556;2023-04-24T07:54:49;2.47;;;0.20;;
57605;SDS011;43430;48.204;11.556;2023-04-24T07:57:15;0.50;;;0.10;;
57605;SDS011;43430;48.204;11.556;2023-04-24T07:59:41;0.28;;;0.10;;
57605;SDS011;43430;48.204;11.556;2023-04-24T08:02:07;0.70;;;0.10;;
57605;SDS011;43430;48.204;11.556;2023-04-24T08:04:32;0.50;;;0.10;;
57605;SDS011;43430;48.204;11.556;2023-04-24T08:06:58;1.20;;;0.10;;
57605;SDS011;43430;48.204;11.556;2023-04-24T08:09:23;0.90;;;0.20;;
57605;SDS011;43430;48.204;11.556;2023-04-24T08:11:49;1.33;;;0.35;;
57605;SDS011;43430;48.204;11.556;2023-04-24T08:14:15;0.55;;;0.10;;
57605;SDS011;43430;48.204;11.556;2023-04-24T08:16:40;0.65;;;0.10;;
57605;SDS011;43430;48.204;11.556;2023-04-24T08:19:06;1.88;;;0.10;;
57605;SDS011;43430;48.204;11.556;2023-04-24T08:21:32;0.73;;;0.10;;
57605;SDS011;43430;48.204;11.556;2023-04-24T08:23:57;0.93;;;0.13;;
57605;SDS011;43430;48.204;11.556;2023-04-24T08:26:23;0.88;;;0.20;;
57605;SDS011;43430;48.204;11.556;2023-04-24T08:28:48;0.73;;;0.10;;
57605;SDS011;43430;48.204;11.556;2023-04-24T08:31:14;0.70;;;0.10;;
57605;SDS011;43430;48.204;11.556;2023-04-24T08:33:40;0.50;;;0.10;;
57605;SDS011;43430;48.204;11.556;2023-04-24T08:36:06;2.05;;;0.10;;
57605;SDS011;43430;48.204;11.556;2023-04-24T08:38:32;0.65;;;0.10;;
57605;SDS011;43430;48.204;11.556;2023-04-24T08:40:58;0.40;;;0.10;;
57605;SDS011;43430;48.204;11.556;2023-04-24T08:43:25;0.93;;;0.17;;
57605;SDS011;43430;48.204;11.556;2023-04-24T08:45:52;0.90;;;0.10;;
57605;SDS011;43430;48.204;11.556;2023-04-24T08:48:18;0.63;;;0.10;;
57605;SDS011;43430;48.204;11.556;2023-04-24T08:50:43;1.30;;;0.20;;
57605;SDS011;43430;48.204;11.556;2023-04-24T08:53:09;1.15;;;0.13;;
57605;SDS011;43430;48.204;11.556;2023-04-24T08:55:36;0.77;;;0.13;;
57605;SDS011;43430;48.204;11.556;2023-04-24T08:58:03;0.68;;;0.10;;
57605;SDS011;43430;48.204;11.556;2023-04-24T09:00:29;0.40;;;0.10;;
57605;SDS011;43430;48.204;11.556;2023-04-24T09:02:55;1.10;;;0.13;;
57605;SDS011;43430;48.204;11.556;2023-04-24T09:05:30;0.95;;;0.20;;
57605;SDS011;43430;48.204;11.556;2023-04-24T09:07:57;1.17;;;0.10;;
57605;SDS011;43430;48.204;11.556;2023-04-24T09:10:26;0.98;;;0.28;;
57605;SDS011;43430;48.204;11.556;2023-04-24T09:12:53;3.80;;;0.30;;
57605;SDS011;43430;48.204;11.556;2023-04-24T09:15:20;0.98;;;0.30;;
57605;SDS011;43430;48.204;11.556;2023-04-24T09:17:46;2.50;;;0.20;;
57605;SDS011;43430;48.204;11.556;2023-04-24T09:20:12;2.42;;;0.13;;
57605;SDS011;43430;48.204;11.556;2023-04-24T09:22:37;1.58;;;0.20;;
57605;SDS011;43430;48.204;11.556;2023-04-24T09:25:07;1.25;;;0.22;;
57605;SDS011;43430;48.204;11.556;2023-04-24T09:27:34;1.88;;;0.28;;
57605;SDS011;43430;48.204;11.556;2023-04-24T09:30:00;1.95;;;0.28;;
57605;SDS011;43430;48.204;11.556;2023-04-24T09:32:29;5.40;;;0.40;;
57605;SDS011;43430;48.204;11.556;2023-04-24T09:37:39;1.10;;;0.40;;
57605;SDS011;43430;48.204;11.556;2023-04-24T09:40:09;2.80;;;0.32;;
57605;SDS011;43430;48.204;11.556;2023-04-24T09:42:45;3.25;;;0.30;;
57605;SDS011;43430;48.204;11.556;2023-04-24T09:48:08;1.90;;;0.30;;
57605;SDS011;43430;48.204;11.556;2023-04-24T09:50:35;1.77;;;0.45;;
57605;SDS011;43430;48.204;11.556;2023-04-24T09:53:05;2.45;;;0.20;;
57605;SDS011;43430;48.204;11.556;2023-04-24T09:55:38;2.40;;;0.20;;
57605;SDS011;43430;48.204;11.556;2023-04-24T09:58:07;3.67;;;0.40;;
57605;SDS011;43430;48.204;11.556;2023-04-24T10:00:33;2.05;;;0.30;;
57605;SDS011;43430;48.204;11.556;2023-04-24T10:03:02;1.65;;;0.35;;
57605;SDS011;43430;48.204;11.556;2023-04-24T10:05:29;1.40;;;0.40;;
57605;SDS011;43430;48.204;11.556;2023-04-24T10:08:00;1.50;;;0.30;;
57605;SDS011;43430;48.204;11.556;2023-04-24T10:10:30;2.35;;;0.40;;
57605;SDS011;43430;48.204;11.556;2023-04-24T10:12:57;1.20;;;0.30;;
57605;SDS011;43430;48.204;11.556;2023-04-24T10:15:22;2.63;;;0.30;;
57605;SDS011;43430;48.204;11.556;2023-04-24T10:17:50;1.75;;;0.32;;
57605;SDS011;43430;48.204;11.556;2023-04-24T10:20:19;1.33;;;0.30;;
57605;SDS011;43430;48.204;11.556;2023-04-24T10:22:47;3.40;;;0.38;;
57605;SDS011;43430;48.204;11.556;2023-04-24T10:25:15;1.10;;;0.30;;
57605;SDS011;43430;48.204;11.556;2023-04-24T10:27:42;1.98;;;0.20;;
57605;SDS011;43430;48.204;11.556;2023-04-24T10:30:08;2.42;;;0.63;;
57605;SDS011;43430;48.204;11.556;2023-04-24T10:32:36;1.58;;;0.38;;
57605;SDS011;43430;48.204;11.556;2023-04-24T10:35:01;1.67;;;0.30;;
57605;SDS011;43430;48.204;11.556;2023-04-24T10:37:41;1.17;;;0.30;;
57605;SDS011;43430;48.204;11.556;2023-04-24T10:40:11;1.85;;;0.35;;
57605;SDS011;43430;48.204;11.556;2023-04-24T10:42:42;2.80;;;0.50;;
57605;SDS011;43430;48.204;11.556;2023-04-24T10:48:27;0.82;;;0.30;;
57605;SDS011;43430;48.204;11.556;2023-04-24T10:50:53;2.95;;;0.20;;
57605;SDS011;43430;48.204;11.556;2023-04-24T10:53:30;2.88;;;0.20;;
57605;SDS011;43430;48.204;11.556;2023-04-24T10:58:51;1.05;;;0.20;;
57605;SDS011;43430;48.204;11.556;2023-04-24T11:01:31;2.28;;;0.30;;
57605;SDS011;43430;48.204;11.556;2023-04-24T11:03:58;1.38;;;0.20;;
57605;SDS011;43430;48.204;11.556;2023-04-24T11:06:30;1.55;;;0.30;;
57605;SDS011;43430;48.204;11.556;2023-04-24T11:11:32;0.70;;;0.20;;
57605;SDS011;43430;48.204;11.556;2023-04-24T11:16:43;1.33;;;0.20;;
57605;SDS011;43430;48.204;11.556;2023-04-24T11:24:23;2.03;;;0.30;;
57605;SDS011;43430;48.204;11.556;2023-04-24T11:29:41;1.52;;;0.30;;
57605;SDS011;43430;48.204;11.556;2023-04-24T11:32:23;2.15;;;0.40;;
57605;SDS011;43430;48.204;11.556;2023-04-24T11:37:42;0.82;;;0.20;;
57605;SDS011;43430;48.204;11.556;2023-04-24T11:40:12;0.73;;;0.20;;
57605;SDS011;43430;48.204;11.556;2023-04-24T11:42:39;0.60;;;0.20;;
57605;SDS011;43430;48.204;11.556;2023-04-24T11:45:09;0.73;;;0.13;;
57605;SDS011;43430;48.204;11.556;2023-04-24T11:47:39;0.98;;;0.20;;
57605;SDS011;43430;48.204;11.556;2023-04-24T11:50:05;0.60;;;0.10;;
57605;SDS011;43430;48.204;11.556;2023-04-24T11:52:40;1.98;;;0.20;;
57605;SDS011;43430;48.204;11.556;2023-04-24T11:55:07;0.98;;;0.20;;
57605;SDS011;43430;48.204;11.556;2023-04-24T11:57:51;0.68;;;0.20;;
57605;SDS011;43430;48.204;11.556;2023-04-24T12:02:47;1.25;;;0.30;;
57605;SDS011;43430;48.204;11.556;2023-04-24T12:05:26;1.20;;;0.30;;
57605;SDS011;43430;48.204;11.556;2023-04-24T12:07:52;3.17;;;0.38;;
57605;SDS011;43430;48.204;11.556;2023-04-24T12:10:21;1.15;;;0.30;;
57605;SDS011;43430;48.204;11.556;2023-04-24T12:12:48;2.03;;;0.25;;
57605;SDS011;43430;48.204;11.556;2023-04-24T12:15:15;1.33;;;0.20;;
57605;SDS011;43430;48.204;11.556;2023-04-24T12:17:41;0.80;;;0.20;;
57605;SDS011;43430;48.204;11.556;2023-04-24T12:20:08;1.33;;;0.20;;
57605;SDS011;43430;48.204;11.556;2023-04-24T12:22:50;1.23;;;0.20;;
57605;SDS011;43430;48.204;11.556;2023-04-24T12:25:19;1.38;;;0.20;;
57605;SDS011;43430;48.204;11.556;2023-04-24T12:27:46;1.50;;;0.30;;
57605;SDS011;43430;48.204;11.556;2023-04-24T12:30:17;0.70;;;0.20;;
57605;SDS011;43430;48.204;11.556;2023-04-24T12:32:44;1.45;;;0.30;;
57605;SDS011;43430;48.204;11.556;2023-04-24T12:35:18;3.13;;;0.35;;
57605;SDS011;43430;48.204;11.556;2023-04-24T12:37:45;1.10;;;0.30;;
57605;SDS011;43430;48.204;11.556;2023-04-24T12:40:11;2.20;;;0.22;;
57605;SDS011;43430;48.204;11.556;2023-04-24T12:42:42;1.33;;;0.25;;
57605;SDS011;43430;48.204;11.556;2023-04-24T12:45:15;1.10;;;0.20;;
57605;SDS011;43430;48.204;11.556;2023-04-24T12:47:42;2.13;;;0.20;;
57605;SDS011;43430;48.204;11.556;2023-04-24T12:50:09;1.02;;;0.30;;
57605;SDS011;43430;48.204;11.556;2023-04-24T12:52:39;0.80;;;0.30;;
57605;SDS011;43430;48.204;11.556;2023-04-24T12:55:06;1.25;;;0.38;;
57605;SDS011;43430;48.204;11.556;2023-04-24T12:57:36;3.40;;;0.43;;
57605;SDS011;43430;48.204;11.556;2023-04-24T13:00:02;1.27;;;0.40;;
57605;SDS011;43430;48.204;11.556;2023-04-24T13:02:31;3.42;;;0.30;;
57605;SDS011;43430;48.204;11.556;2023-04-24T13:04:58;1.27;;;0.30;;
57605;SDS011;43430;48.204;11.556;2023-04-24T13:07:24;1.25;;;0.20;;
57605;SDS011;43430;48.204;11.556;2023-04-24T13:09:50;1.65;;;0.20;;
57605;SDS011;43430;48.204;11.556;2023-04-24T13:12:16;3.90;;;0.52;;
57605;SDS011;43430;48.204;11.556;2023-04-24T13:14:42;1.38;;;0.35;;
57605;SDS011;43430;48.204;11.556;2023-04-24T13:17:08;1.88;;;0.40;;
57605;SDS011;43430;48.204;11.556;2023-04-24T13:19:37;1.40;;;0.40;;
57605;SDS011;43430;48.204;11.556;2023-04-24T13:22:05;3.38;;;0.30;;
57605;SDS011;43430;48.204;11.556;2023-04-24T13:24:31;2.20;;;0.32;;
57605;SDS011;43430;48.204;11.556;2023-04-24T13:26:57;0.85;;;0.30;;
57605;SDS011;43430;48.204;11.556;2023-04-24T13:29:23;0.98;;;0.22;;
57605;SDS011;43430;48.204;11.556;2023-04-24T13:31:52;1.20;;;0.30;;
57605;SDS011;43430;48.204;11.556;2023-04-24T13:34:20;3.17;;;0.40;;
57605;SDS011;43430;48.204;11.556;2023-04-24T13:36:45;1.42;;;0.30;;
57605;SDS011;43430;48.204;11.556;2023-04-24T13:39:11;1.63;;;0.38;;
57605;SDS011;43430;48.204;11.556;2023-04-24T13:41:37;3.47;;;0.40;;
57605;SDS011;43430;48.204;11.556;2023-04-24T13:44:03;1.55;;;0.22;;
57605;SDS011;43430;48.204;11.556;2023-04-24T13:46:29;1.23;;;0.30;;
57605;SDS011;43430;48.204;11.556;2023-04-24T13:48:55;1.65;;;0.40;;
57605;SDS011;43430;48.204;11.556;2023-04-24T13:51:21;2.20;;;0.30;;
57605;SDS011;43430;48.204;11.556;2023-04-24T13:53:47;1.58;;;0.30;;
57605;SDS011;43430;48.204;11.556;2023-04-24T13:56:12;1.88;;;0.30;;
57605;SDS011;43430;48.204;11.556;2023-04-24T13:58:39;1.52;;;0.30;;
57605;SDS011;43430;48.204;11.556;2023-04-24T14:01:04;4.97;;;0.50;;
57605;SDS011;43430;48.204;11.556;2023-04-24T14:03:30;2.53;;;0.40;;
57605;SDS011;43430;48.204;11.556;2023-04-24T14:05:55;4.50;;;0.40;;
57605;SDS011;43430;48.204;11.556;2023-04-24T14:08:21;2.75;;;0.40;;
57605;SDS011;43430;48.204;11.556;2023-04-24T14:10:46;2.58;;;0.47;;
57605;SDS011;43430;48.204;11.556;2023-04-24T14:13:12;3.67;;;0.65;;
57605;SDS011;43430;48.204;11.556;2023-04-24T14:15:37;2.45;;;0.77;;
57605;SDS011;43430;48.204;11.556;2023-04-24T14:18:03;2.15;;;0.40;;
57605;SDS011;43430;48.204;11.556;2023-04-24T14:20:29;1.52;;;0.40;;
57605;SDS011;43430;48.204;11.556;2023-04-24T14:22:54;1.10;;;0.38;;
57605;SDS011;43430;48.204;11.556;2023-04-24T14:25:20;1.77;;;0.40;;
57605;SDS011;43430;48.204;11.556;2023-04-24T14:27:50;1.98;;;0.20;;
57605;SDS011;43430;48.204;11.556;2023-04-24T14:30:16;1.45;;;0.30;;
57605;SDS011;43430;48.204;11.556;2023-04-24T14:32:43;1.00;;;0.20;;
57605;SDS011;43430;48.204;11.556;2023-04-24T14:35:08;3.13;;;0.52;;
57605;SDS011;43430;48.204;11.556;2023-04-24T14:37:39;1.02;;;0.30;;
57605;SDS011;43430;48.204;11.556;2023-04-24T14:40:16;3.17;;;0.50;;
57605;SDS011;43430;48.204;11.556;2023-04-24T14:42:41;2.10;;;0.40;;
57605;SDS011;43430;48.204;11.556;2023-04-24T14:45:07;4.97;;;0.43;;
57605;SDS011;43430;48.204;11.556;2023-04-24T14:47:36;2.25;;;0.50;;
57605;SDS011;43430;48.204;11.556;2023-04-24T14:50:05;1.35;;;0.40;;
57605;SDS011;43430;48.204;11.556;2023-04-24T14:52:31;2.90;;;0.40;;
57605;SDS011;43430;48.204;11.556;2023-04-24T14:54:56;3.13;;;0.32;;
57605;SDS011;43430;48.204;11.556;2023-04-24T14:57:22;3.42;;;0.30;;
57605;SDS011;43430;48.204;11.556;2023-04-24T14:59:48;2.30;;;0.57;;